sensor_id;sensor_type;location;lat;lon;timestamp;P1;durP1;ratioP1;P2;durP2;ratioP2
51594;SDS011;37677;53.254;6.594;2023-08-12T00:00:23;9.10;;;4.35;;
51594;SDS011;37677;53.254;6.594;2023-08-12T00:02:52;7.38;;;4.22;;
51594;SDS011;37677;53.254;6.594;2023-08-12T00:05:36;6.38;;;4.10;;
51594;SDS011;37677;53.254;6.594;2023-08-12T00:08:12;6.60;;;4.10;;
51594;SDS011;37677;53.254;6.594;2023-08-12T00:10:48;9.38;;;3.70;;
51594;SDS011;37677;53.254;6.594;2023-08-12T00:13:17;10.60;;;4.25;;
51594;SDS011;37677;53.254;6.594;2023-08-12T00:15:55;10.25;;;4.20;;
51594;SDS011;37677;53.254;6.594;2023-08-12T00:18:26;9.13;;;4.57;;
51594;SDS011;37677;53.254;6.594;2023-08-12T00:20:56;9.00;;;4.38;;
51594;SDS011;37677;53.254;6.594;2023-08-12T00:23:24;9.98;;;3.92;;
51594;SDS011;37677;53.254;6.594;2023-08-12T00:25:50;6.75;;;3.63;;
51594;SDS011;37677;53.254;6.594;2023-08-12T00:28:17;6.68;;;3.33;;
51594;SDS011;37677;53.254;6.594;2023-08-12T00:30:50;8.30;;;3.45;;
51594;SDS011;37677;53.254;6.594;2023-08-12T00:33:27;6.53;;;3.10;;
51594;SDS011;37677;53.254;6.594;2023-08-12T00:35:53;6.25;;;3.20;;
51594;SDS011;37677;53.254;6.594;2023-08-12T00:38:21;5.78;;;2.90;;
51594;SDS011;37677;53.254;6.594;2023-08-12T00:40:50;6.18;;;3.03;;
51594;SDS011;37677;53.254;6.594;2023-08-12T00:43:19;5.50;;;2.60;;
51594;SDS011;37677;53.254;6.594;2023-08-12T00:45:45;5.28;;;2.90;;
51594;SDS011;37677;53.254;6.594;2023-08-12T00:48:14;5.28;;;2.67;;
51594;SDS011;37677;53.254;6.594;2023-08-12T00:50:48;6.75;;;3.08;;
51594;SDS011;37677;53.254;6.594;2023-08-12T00:53:22;6.15;;;2.80;;
51594;SDS011;37677;53.254;6.594;2023-08-12T00:55:48;4.15;;;2.60;;
51594;SDS011;37677;53.254;6.594;2023-08-12T00:58:22;7.03;;;3.15;;
51594;SDS011;37677;53.254;6.594;2023-08-12T01:00:50;5.43;;;2.50;;
51594;SDS011;37677;53.254;6.594;2023-08-12T01:03:19;7.28;;;2.75;;
51594;SDS011;37677;53.254;6.594;2023-08-12T01:05:46;6.45;;;2.30;;
51594;SDS011;37677;53.254;6.594;2023-08-12T01:08:13;5.50;;;2.95;;
51594;SDS011;37677;53.254;6.594;2023-08-12T01:10:39;6.00;;;2.53;;
51594;SDS011;37677;53.254;6.594;2023-08-12T01:13:17;5.47;;;2.55;;
51594;SDS011;37677;53.254;6.594;2023-08-12T01:15:45;4.50;;;2.40;;
51594;SDS011;37677;53.254;6.594;2023-08-12T01:18:12;4.45;;;2.90;;
51594;SDS011;37677;53.254;6.594;2023-08-12T01:20:40;5.75;;;2.70;;
51594;SDS011;37677;53.254;6.594;2023-08-12T01:23:18;5.97;;;2.40;;
51594;SDS011;37677;53.254;6.594;2023-08-12T01:25:53;4.95;;;2.30;;
51594;SDS011;37677;53.254;6.594;2023-08-12T01:28:19;4.32;;;2.35;;
51594;SDS011;37677;53.254;6.594;2023-08-12T01:33:21;3.55;;;2.20;;
51594;SDS011;37677;53.254;6.594;2023-08-12T01:35:54;5.65;;;2.33;;
51594;SDS011;37677;53.254;6.594;2023-08-12T01:38:21;5.43;;;2.42;;
51594;SDS011;37677;53.254;6.594;2023-08-12T01:40:47;5.30;;;2.55;;
51594;SDS011;37677;53.254;6.594;2023-08-12T01:43:14;5.00;;;2.47;;
51594;SDS011;37677;53.254;6.594;2023-08-12T01:45:44;4.40;;;2.70;;
51594;SDS011;37677;53.254;6.594;2023-08-12T01:48:10;3.88;;;2.15;;
51594;SDS011;37677;53.254;6.594;2023-08-12T01:50:36;6.07;;;2.90;;
51594;SDS011;37677;53.254;6.594;2023-08-12T01:53:02;4.00;;;2.53;;
51594;SDS011;37677;53.254;6.594;2023-08-12T01:55:29;6.47;;;2.80;;
51594;SDS011;37677;53.254;6.594;2023-08-12T01:57:55;3.97;;;2.35;;
51594;SDS011;37677;53.254;6.594;2023-08-12T02:00:22;3.72;;;2.42;;
51594;SDS011;37677;53.254;6.594;2023-08-12T02:02:48;8.50;;;3.30;;
51594;SDS011;37677;53.254;6.594;2023-08-12T02:05:14;5.30;;;3.25;;
51594;SDS011;37677;53.254;6.594;2023-08-12T02:07:40;5.80;;;3.28;;
51594;SDS011;37677;53.254;6.594;2023-08-12T02:10:07;4.90;;;3.13;;
51594;SDS011;37677;53.254;6.594;2023-08-12T02:12:33;5.38;;;3.40;;
51594;SDS011;37677;53.254;6.594;2023-08-12T02:14:59;6.32;;;3.50;;
51594;SDS011;37677;53.254;6.594;2023-08-12T02:17:25;4.65;;;3.05;;
51594;SDS011;37677;53.254;6.594;2023-08-12T02:19:51;6.07;;;3.10;;
51594;SDS011;37677;53.254;6.594;2023-08-12T02:22:19;5.63;;;2.97;;
51594;SDS011;37677;53.254;6.594;2023-08-12T02:24:45;5.72;;;3.55;;
51594;SDS011;37677;53.254;6.594;2023-08-12T02:27:14;6.93;;;3.65;;
51594;SDS011;37677;53.254;6.594;2023-08-12T02:29:47;4.30;;;3.35;;
51594;SDS011;37677;53.254;6.594;2023-08-12T02:32:13;6.32;;;3.15;;
51594;SDS011;37677;53.254;6.594;2023-08-12T02:34:42;8.02;;;3.70;;
51594;SDS011;37677;53.254;6.594;2023-08-12T02:37:10;4.93;;;3.20;;
51594;SDS011;37677;53.254;6.594;2023-08-12T02:39:38;6.82;;;3.40;;
51594;SDS011;37677;53.254;6.594;2023-08-12T02:42:04;8.98;;;3.88;;
51594;SDS011;37677;53.254;6.594;2023-08-12T02:44:30;5.75;;;4.13;;
51594;SDS011;37677;53.254;6.594;2023-08-12T02:46:56;8.10;;;4.22;;
51594;SDS011;37677;53.254;6.594;2023-08-12T02:49:22;5.90;;;4.07;;
51594;SDS011;37677;53.254;6.594;2023-08-12T02:51:58;4.78;;;3.75;;
51594;SDS011;37677;53.254;6.594;2023-08-12T02:54:30;7.22;;;4.18;;
51594;SDS011;37677;53.254;6.594;2023-08-12T02:57:02;7.85;;;4.72;;
51594;SDS011;37677;53.254;6.594;2023-08-12T02:59:28;6.90;;;4.20;;
51594;SDS011;37677;53.254;6.594;2023-08-12T03:01:58;7.97;;;4.93;;
51594;SDS011;37677;53.254;6.594;2023-08-12T03:04:35;7.82;;;5.07;;
51594;SDS011;37677;53.254;6.594;2023-08-12T03:07:04;7.00;;;3.97;;
51594;SDS011;37677;53.254;6.594;2023-08-12T03:09:33;6.47;;;4.50;;
51594;SDS011;37677;53.254;6.594;2023-08-12T03:11:59;6.47;;;4.13;;
51594;SDS011;37677;53.254;6.594;2023-08-12T03:14:28;10.23;;;5.57;;
51594;SDS011;37677;53.254;6.594;2023-08-12T03:16:55;6.60;;;4.55;;
51594;SDS011;37677;53.254;6.594;2023-08-12T03:19:21;5.30;;;4.13;;
51594;SDS011;37677;53.254;6.594;2023-08-12T03:21:50;6.38;;;4.38;;
51594;SDS011;37677;53.254;6.594;2023-08-12T03:24:17;5.95;;;4.45;;
51594;SDS011;37677;53.254;6.594;2023-08-12T03:26:51;7.53;;;4.80;;
51594;SDS011;37677;53.254;6.594;2023-08-12T03:29:17;6.30;;;4.70;;
51594;SDS011;37677;53.254;6.594;2023-08-12T03:31:43;7.75;;;4.75;;
51594;SDS011;37677;53.254;6.594;2023-08-12T03:34:12;6.57;;;4.43;;
51594;SDS011;37677;53.254;6.594;2023-08-12T03:36:41;7.40;;;4.80;;
51594;SDS011;37677;53.254;6.594;2023-08-12T03:39:07;6.13;;;4.80;;
51594;SDS011;37677;53.254;6.594;2023-08-12T03:41:33;9.02;;;5.20;;
51594;SDS011;37677;53.254;6.594;2023-08-12T03:44:07;7.47;;;4.32;;
51594;SDS011;37677;53.254;6.594;2023-08-12T03:46:33;7.55;;;6.10;;
51594;SDS011;37677;53.254;6.594;2023-08-12T03:49:02;10.43;;;6.10;;
51594;SDS011;37677;53.254;6.594;2023-08-12T03:51:30;17.63;;;6.15;;
51594;SDS011;37677;53.254;6.594;2023-08-12T03:53:57;9.85;;;5.78;;
51594;SDS011;37677;53.254;6.594;2023-08-12T03:56:26;9.70;;;5.95;;
51594;SDS011;37677;53.254;6.594;2023-08-12T03:58:53;7.95;;;5.50;;
51594;SDS011;37677;53.254;6.594;2023-08-12T04:01:19;8.18;;;5.68;;
51594;SDS011;37677;53.254;6.594;2023-08-12T04:03:55;6.22;;;5.15;;
51594;SDS011;37677;53.254;6.594;2023-08-12T04:06:24;7.47;;;5.05;;
51594;SDS011;37677;53.254;6.594;2023-08-12T04:08:50;11.13;;;5.95;;
51594;SDS011;37677;53.254;6.594;2023-08-12T04:11:19;7.13;;;5.22;;
51594;SDS011;37677;53.254;6.594;2023-08-12T04:13:47;10.02;;;6.65;;
51594;SDS011;37677;53.254;6.594;2023-08-12T04:16:13;8.93;;;6.00;;
51594;SDS011;37677;53.254;6.594;2023-08-12T04:18:39;9.02;;;6.05;;
51594;SDS011;37677;53.254;6.594;2023-08-12T04:21:05;7.93;;;5.70;;
51594;SDS011;37677;53.254;6.594;2023-08-12T04:23:31;6.82;;;5.88;;
51594;SDS011;37677;53.254;6.594;2023-08-12T04:25:58;9.77;;;6.60;;
51594;SDS011;37677;53.254;6.594;2023-08-12T04:28:24;6.57;;;5.03;;
51594;SDS011;37677;53.254;6.594;2023-08-12T04:30:50;9.57;;;5.60;;
51594;SDS011;37677;53.254;6.594;2023-08-12T04:33:17;8.45;;;6.40;;
51594;SDS011;37677;53.254;6.594;2023-08-12T04:35:48;8.65;;;7.05;;
51594;SDS011;37677;53.254;6.594;2023-08-12T04:38:15;11.52;;;6.30;;
51594;SDS011;37677;53.254;6.594;2023-08-12T04:40:42;11.32;;;7.60;;
51594;SDS011;37677;53.254;6.594;2023-08-12T04:43:09;9.30;;;7.22;;
51594;SDS011;37677;53.254;6.594;2023-08-12T04:45:36;8.45;;;6.50;;
51594;SDS011;37677;53.254;6.594;2023-08-12T04:48:03;8.90;;;7.00;;
51594;SDS011;37677;53.254;6.594;2023-08-12T04:50:30;11.23;;;7.22;;
51594;SDS011;37677;53.254;6.594;2023-08-12T04:52:56;8.15;;;6.55;;
51594;SDS011;37677;53.254;6.594;2023-08-12T04:55:24;8.52;;;7.43;;
51594;SDS011;37677;53.254;6.594;2023-08-12T04:57:50;9.25;;;6.75;;
51594;SDS011;37677;53.254;6.594;2023-08-12T05:00:24;11.65;;;6.82;;
51594;SDS011;37677;53.254;6.594;2023-08-12T05:03:02;9.55;;;7.35;;
51594;SDS011;37677;53.254;6.594;2023-08-12T05:05:29;9.88;;;6.97;;
51594;SDS011;37677;53.254;6.594;2023-08-12T05:07:55;9.65;;;6.88;;
51594;SDS011;37677;53.254;6.594;2023-08-12T05:10:42;9.95;;;7.15;;
51594;SDS011;37677;53.254;6.594;2023-08-12T05:13:09;8.60;;;6.35;;
51594;SDS011;37677;53.254;6.594;2023-08-12T05:15:38;10.93;;;6.82;;
51594;SDS011;37677;53.254;6.594;2023-08-12T05:18:05;7.90;;;6.93;;
51594;SDS011;37677;53.254;6.594;2023-08-12T05:20:31;8.73;;;6.55;;
51594;SDS011;37677;53.254;6.594;2023-08-12T05:23:15;8.20;;;5.28;;
51594;SDS011;37677;53.254;6.594;2023-08-12T05:25:41;9.75;;;5.63;;
51594;SDS011;37677;53.254;6.594;2023-08-12T05:28:07;9.48;;;6.72;;
51594;SDS011;37677;53.254;6.594;2023-08-12T05:30:36;9.30;;;6.05;;
51594;SDS011;37677;53.254;6.594;2023-08-12T05:33:04;8.98;;;5.05;;
51594;SDS011;37677;53.254;6.594;2023-08-12T05:35:33;10.10;;;6.10;;
51594;SDS011;37677;53.254;6.594;2023-08-12T05:38:11;6.43;;;5.07;;
51594;SDS011;37677;53.254;6.594;2023-08-12T05:40:39;8.57;;;6.63;;
51594;SDS011;37677;53.254;6.594;2023-08-12T05:43:08;10.70;;;5.82;;
51594;SDS011;37677;53.254;6.594;2023-08-12T05:45:34;8.80;;;5.70;;
51594;SDS011;37677;53.254;6.594;2023-08-12T05:48:00;7.97;;;6.32;;
51594;SDS011;37677;53.254;6.594;2023-08-12T05:50:26;14.13;;;6.25;;
51594;SDS011;37677;53.254;6.594;2023-08-12T05:52:52;8.68;;;6.30;;
51594;SDS011;37677;53.254;6.594;2023-08-12T05:55:18;7.47;;;6.43;;
51594;SDS011;37677;53.254;6.594;2023-08-12T05:57:44;9.23;;;6.55;;
51594;SDS011;37677;53.254;6.594;2023-08-12T06:00:11;8.07;;;6.70;;
51594;SDS011;37677;53.254;6.594;2023-08-12T06:02:39;12.95;;;6.57;;
51594;SDS011;37677;53.254;6.594;2023-08-12T06:05:08;13.18;;;7.32;;
51594;SDS011;37677;53.254;6.594;2023-08-12T06:07:34;8.50;;;7.25;;
51594;SDS011;37677;53.254;6.594;2023-08-12T06:10:04;8.57;;;6.75;;
51594;SDS011;37677;53.254;6.594;2023-08-12T06:12:30;15.38;;;7.25;;
51594;SDS011;37677;53.254;6.594;2023-08-12T06:14:56;11.40;;;7.10;;
51594;SDS011;37677;53.254;6.594;2023-08-12T06:17:24;11.70;;;7.90;;
51594;SDS011;37677;53.254;6.594;2023-08-12T06:19:50;13.23;;;6.85;;
51594;SDS011;37677;53.254;6.594;2023-08-12T06:22:16;13.27;;;7.00;;
51594;SDS011;37677;53.254;6.594;2023-08-12T06:24:42;13.65;;;7.05;;
51594;SDS011;37677;53.254;6.594;2023-08-12T06:27:08;12.95;;;7.90;;
51594;SDS011;37677;53.254;6.594;2023-08-12T06:29:34;9.70;;;7.38;;
51594;SDS011;37677;53.254;6.594;2023-08-12T06:32:00;17.23;;;7.50;;
51594;SDS011;37677;53.254;6.594;2023-08-12T06:34:29;12.63;;;6.95;;
51594;SDS011;37677;53.254;6.594;2023-08-12T06:36:55;12.10;;;7.68;;
51594;SDS011;37677;53.254;6.594;2023-08-12T06:39:21;13.65;;;8.40;;
51594;SDS011;37677;53.254;6.594;2023-08-12T06:41:47;10.73;;;8.05;;
51594;SDS011;37677;53.254;6.594;2023-08-12T06:44:16;14.80;;;8.40;;
51594;SDS011;37677;53.254;6.594;2023-08-12T06:46:42;16.95;;;9.57;;
51594;SDS011;37677;53.254;6.594;2023-08-12T06:49:09;11.55;;;7.88;;
51594;SDS011;37677;53.254;6.594;2023-08-12T06:51:35;10.68;;;8.10;;
51594;SDS011;37677;53.254;6.594;2023-08-12T06:54:03;17.02;;;8.57;;
51594;SDS011;37677;53.254;6.594;2023-08-12T06:56:32;14.10;;;9.55;;
51594;SDS011;37677;53.254;6.594;2023-08-12T06:59:07;16.13;;;9.88;;
51594;SDS011;37677;53.254;6.594;2023-08-12T07:01:33;14.00;;;9.45;;
51594;SDS011;37677;53.254;6.594;2023-08-12T07:03:59;10.95;;;8.43;;
51594;SDS011;37677;53.254;6.594;2023-08-12T07:06:25;14.23;;;8.13;;
51594;SDS011;37677;53.254;6.594;2023-08-12T07:08:51;12.80;;;9.82;;
51594;SDS011;37677;53.254;6.594;2023-08-12T07:11:18;15.25;;;9.18;;
51594;SDS011;37677;53.254;6.594;2023-08-12T07:13:44;15.55;;;10.02;;
51594;SDS011;37677;53.254;6.594;2023-08-12T07:16:11;15.70;;;9.68;;
51594;SDS011;37677;53.254;6.594;2023-08-12T07:18:37;18.23;;;9.75;;
51594;SDS011;37677;53.254;6.594;2023-08-12T07:21:03;13.95;;;9.82;;
51594;SDS011;37677;53.254;6.594;2023-08-12T07:23:30;14.70;;;9.20;;
51594;SDS011;37677;53.254;6.594;2023-08-12T07:25:57;16.20;;;10.00;;
51594;SDS011;37677;53.254;6.594;2023-08-12T07:28:23;16.27;;;9.27;;
51594;SDS011;37677;53.254;6.594;2023-08-12T07:30:49;13.40;;;9.10;;
51594;SDS011;37677;53.254;6.594;2023-08-12T07:33:17;13.68;;;9.60;;
51594;SDS011;37677;53.254;6.594;2023-08-12T07:35:44;17.15;;;10.00;;
51594;SDS011;37677;53.254;6.594;2023-08-12T07:38:10;14.45;;;9.98;;
51594;SDS011;37677;53.254;6.594;2023-08-12T07:40:38;12.70;;;9.90;;
51594;SDS011;37677;53.254;6.594;2023-08-12T07:43:06;12.73;;;10.15;;
51594;SDS011;37677;53.254;6.594;2023-08-12T07:45:32;20.95;;;11.48;;
51594;SDS011;37677;53.254;6.594;2023-08-12T07:47:58;15.80;;;11.32;;
51594;SDS011;37677;53.254;6.594;2023-08-12T07:50:24;22.58;;;12.38;;
51594;SDS011;37677;53.254;6.594;2023-08-12T07:52:50;19.48;;;12.38;;
51594;SDS011;37677;53.254;6.594;2023-08-12T07:55:18;21.15;;;13.70;;
51594;SDS011;37677;53.254;6.594;2023-08-12T07:57:45;17.20;;;12.68;;
51594;SDS011;37677;53.254;6.594;2023-08-12T08:00:11;21.15;;;14.75;;
51594;SDS011;37677;53.254;6.594;2023-08-12T08:02:37;20.48;;;12.93;;
51594;SDS011;37677;53.254;6.594;2023-08-12T08:05:04;24.55;;;13.43;;
51594;SDS011;37677;53.254;6.594;2023-08-12T08:07:30;20.58;;;13.45;;
51594;SDS011;37677;53.254;6.594;2023-08-12T08:09:57;22.83;;;12.48;;
51594;SDS011;37677;53.254;6.594;2023-08-12T08:12:23;21.70;;;12.77;;
51594;SDS011;37677;53.254;6.594;2023-08-12T08:14:49;21.77;;;11.32;;
51594;SDS011;37677;53.254;6.594;2023-08-12T08:17:15;16.90;;;10.85;;
51594;SDS011;37677;53.254;6.594;2023-08-12T08:19:41;18.67;;;12.55;;
51594;SDS011;37677;53.254;6.594;2023-08-12T08:22:08;18.35;;;12.55;;
51594;SDS011;37677;53.254;6.594;2023-08-12T08:24:34;22.42;;;13.07;;
51594;SDS011;37677;53.254;6.594;2023-08-12T08:27:00;24.60;;;13.95;;
51594;SDS011;37677;53.254;6.594;2023-08-12T08:29:26;20.55;;;13.68;;
51594;SDS011;37677;53.254;6.594;2023-08-12T08:31:53;20.10;;;12.38;;
51594;SDS011;37677;53.254;6.594;2023-08-12T08:34:19;19.52;;;13.02;;
51594;SDS011;37677;53.254;6.594;2023-08-12T08:36:45;20.55;;;12.63;;
51594;SDS011;37677;53.254;6.594;2023-08-12T08:39:11;19.02;;;12.85;;
51594;SDS011;37677;53.254;6.594;2023-08-12T08:41:38;17.98;;;12.73;;
51594;SDS011;37677;53.254;6.594;2023-08-12T08:44:06;19.15;;;12.90;;
51594;SDS011;37677;53.254;6.594;2023-08-12T08:46:32;17.95;;;12.00;;
51594;SDS011;37677;53.254;6.594;2023-08-12T08:49:01;15.18;;;12.15;;
51594;SDS011;37677;53.254;6.594;2023-08-12T08:51:30;19.42;;;12.68;;
51594;SDS011;37677;53.254;6.594;2023-08-12T08:53:59;20.75;;;12.85;;
51594;SDS011;37677;53.254;6.594;2023-08-12T08:56:29;16.17;;;11.82;;
51594;SDS011;37677;53.254;6.594;2023-08-12T08:58:55;16.60;;;13.30;;
51594;SDS011;37677;53.254;6.594;2023-08-12T09:01:21;19.45;;;12.52;;
51594;SDS011;37677;53.254;6.594;2023-08-12T09:03:50;16.52;;;11.68;;
51594;SDS011;37677;53.254;6.594;2023-08-12T09:06:24;16.23;;;12.43;;
51594;SDS011;37677;53.254;6.594;2023-08-12T09:09:05;16.13;;;12.30;;
51594;SDS011;37677;53.254;6.594;2023-08-12T09:11:55;20.25;;;14.02;;
51594;SDS011;37677;53.254;6.594;2023-08-12T09:14:21;21.42;;;14.68;;
51594;SDS011;37677;53.254;6.594;2023-08-12T09:16:47;19.83;;;13.50;;
51594;SDS011;37677;53.254;6.594;2023-08-12T09:19:35;24.17;;;14.00;;
51594;SDS011;37677;53.254;6.594;2023-08-12T09:39:10;30.15;;;17.05;;
51594;SDS011;37677;53.254;6.594;2023-08-12T09:41:41;38.25;;;23.88;;
51594;SDS011;37677;53.254;6.594;2023-08-12T09:44:15;47.00;;;27.77;;
51594;SDS011;37677;53.254;6.594;2023-08-12T09:46:56;44.25;;;25.92;;
51594;SDS011;37677;53.254;6.594;2023-08-12T09:49:24;60.33;;;29.92;;
51594;SDS011;37677;53.254;6.594;2023-08-12T09:54:43;36.13;;;23.73;;
51594;SDS011;37677;53.254;6.594;2023-08-12T09:57:34;51.63;;;30.00;;
51594;SDS011;37677;53.254;6.594;2023-08-12T10:00:02;55.25;;;30.33;;
51594;SDS011;37677;53.254;6.594;2023-08-12T10:02:37;46.78;;;27.95;;
51594;SDS011;37677;53.254;6.594;2023-08-12T10:05:10;48.85;;;29.98;;
51594;SDS011;37677;53.254;6.594;2023-08-12T10:07:37;36.72;;;25.15;;
51594;SDS011;37677;53.254;6.594;2023-08-12T10:10:14;37.88;;;24.58;;
51594;SDS011;37677;53.254;6.594;2023-08-12T10:12:50;28.42;;;21.17;;
51594;SDS011;37677;53.254;6.594;2023-08-12T10:15:28;41.75;;;25.83;;
51594;SDS011;37677;53.254;6.594;2023-08-12T10:18:03;34.55;;;24.45;;
51594;SDS011;37677;53.254;6.594;2023-08-12T10:20:31;37.95;;;24.90;;
51594;SDS011;37677;53.254;6.594;2023-08-12T10:23:00;44.20;;;27.55;;
51594;SDS011;37677;53.254;6.594;2023-08-12T10:25:32;31.92;;;23.15;;
51594;SDS011;37677;53.254;6.594;2023-08-12T10:28:01;73.07;;;34.67;;
51594;SDS011;37677;53.254;6.594;2023-08-12T10:30:28;36.75;;;23.77;;
51594;SDS011;37677;53.254;6.594;2023-08-12T10:32:55;36.13;;;23.38;;
51594;SDS011;37677;53.254;6.594;2023-08-12T10:35:21;31.40;;;21.23;;
51594;SDS011;37677;53.254;6.594;2023-08-12T10:37:50;33.80;;;20.83;;
51594;SDS011;37677;53.254;6.594;2023-08-12T10:40:22;47.03;;;27.75;;
51594;SDS011;37677;53.254;6.594;2023-08-12T10:42:51;37.17;;;24.95;;
51594;SDS011;37677;53.254;6.594;2023-08-12T10:45:17;30.17;;;21.08;;
51594;SDS011;37677;53.254;6.594;2023-08-12T10:50:44;49.33;;;26.50;;
51594;SDS011;37677;53.254;6.594;2023-08-12T10:56:06;19.73;;;15.13;;
51594;SDS011;37677;53.254;6.594;2023-08-12T10:58:46;15.88;;;12.18;;
51594;SDS011;37677;53.254;6.594;2023-08-12T11:01:18;26.30;;;14.32;;
51594;SDS011;37677;53.254;6.594;2023-08-12T11:03:45;26.98;;;14.32;;
51594;SDS011;37677;53.254;6.594;2023-08-12T11:06:11;13.88;;;9.32;;
51594;SDS011;37677;53.254;6.594;2023-08-12T11:08:53;11.95;;;6.75;;
51594;SDS011;37677;53.254;6.594;2023-08-12T11:11:22;7.13;;;5.32;;
51594;SDS011;37677;53.254;6.594;2023-08-12T11:13:58;12.85;;;6.15;;
51594;SDS011;37677;53.254;6.594;2023-08-12T11:16:35;10.73;;;5.60;;
51594;SDS011;37677;53.254;6.594;2023-08-12T11:19:02;9.82;;;5.68;;
51594;SDS011;37677;53.254;6.594;2023-08-12T11:21:28;7.72;;;5.13;;
51594;SDS011;37677;53.254;6.594;2023-08-12T11:23:55;10.52;;;5.30;;
51594;SDS011;37677;53.254;6.594;2023-08-12T11:26:24;8.98;;;5.65;;
51594;SDS011;37677;53.254;6.594;2023-08-12T11:28:50;6.47;;;4.50;;
51594;SDS011;37677;53.254;6.594;2023-08-12T11:31:17;10.15;;;5.15;;
51594;SDS011;37677;53.254;6.594;2023-08-12T11:33:43;7.15;;;5.07;;
51594;SDS011;37677;53.254;6.594;2023-08-12T11:36:12;7.80;;;5.15;;
51594;SDS011;37677;53.254;6.594;2023-08-12T11:38:42;7.70;;;4.28;;
51594;SDS011;37677;53.254;6.594;2023-08-12T11:41:08;8.00;;;4.80;;
51594;SDS011;37677;53.254;6.594;2023-08-12T11:43:34;5.82;;;4.10;;
51594;SDS011;37677;53.254;6.594;2023-08-12T11:46:05;6.68;;;4.03;;
51594;SDS011;37677;53.254;6.594;2023-08-12T11:48:32;7.53;;;5.22;;
51594;SDS011;37677;53.254;6.594;2023-08-12T11:50:58;8.02;;;5.15;;
51594;SDS011;37677;53.254;6.594;2023-08-12T11:53:27;6.90;;;4.00;;
51594;SDS011;37677;53.254;6.594;2023-08-12T11:55:53;5.90;;;3.35;;
51594;SDS011;37677;53.254;6.594;2023-08-12T11:58:20;6.03;;;3.90;;
51594;SDS011;37677;53.254;6.594;2023-08-12T12:00:46;5.13;;;3.40;;
51594;SDS011;37677;53.254;6.594;2023-08-12T12:03:13;9.30;;;4.72;;
51594;SDS011;37677;53.254;6.594;2023-08-12T12:05:39;9.32;;;4.97;;
51594;SDS011;37677;53.254;6.594;2023-08-12T12:08:06;15.23;;;5.15;;
51594;SDS011;37677;53.254;6.594;2023-08-12T12:10:34;10.00;;;4.35;;
51594;SDS011;37677;53.254;6.594;2023-08-12T12:13:02;10.65;;;3.92;;
51594;SDS011;37677;53.254;6.594;2023-08-12T12:15:28;14.45;;;3.53;;
51594;SDS011;37677;53.254;6.594;2023-08-12T12:17:55;9.90;;;3.42;;
51594;SDS011;37677;53.254;6.594;2023-08-12T12:20:21;7.20;;;3.35;;
51594;SDS011;37677;53.254;6.594;2023-08-12T12:22:47;7.45;;;3.38;;
51594;SDS011;37677;53.254;6.594;2023-08-12T12:25:14;9.57;;;3.70;;
51594;SDS011;37677;53.254;6.594;2023-08-12T12:27:41;12.55;;;3.85;;
51594;SDS011;37677;53.254;6.594;2023-08-12T12:30:08;10.55;;;3.42;;
51594;SDS011;37677;53.254;6.594;2023-08-12T12:32:35;10.38;;;3.55;;
51594;SDS011;37677;53.254;6.594;2023-08-12T12:35:01;8.52;;;3.70;;
51594;SDS011;37677;53.254;6.594;2023-08-12T12:37:31;9.02;;;3.70;;
51594;SDS011;37677;53.254;6.594;2023-08-12T12:39:57;5.78;;;2.90;;
51594;SDS011;37677;53.254;6.594;2023-08-12T12:42:23;9.38;;;3.58;;
51594;SDS011;37677;53.254;6.594;2023-08-12T12:44:49;9.98;;;3.70;;
51594;SDS011;37677;53.254;6.594;2023-08-12T12:47:15;8.57;;;3.38;;
51594;SDS011;37677;53.254;6.594;2023-08-12T12:49:45;11.68;;;4.05;;
51594;SDS011;37677;53.254;6.594;2023-08-12T12:52:14;8.98;;;3.67;;
51594;SDS011;37677;53.254;6.594;2023-08-12T12:54:40;5.25;;;3.20;;
51594;SDS011;37677;53.254;6.594;2023-08-12T12:57:12;10.48;;;3.63;;
51594;SDS011;37677;53.254;6.594;2023-08-12T12:59:41;9.07;;;3.10;;
51594;SDS011;37677;53.254;6.594;2023-08-12T13:02:17;9.02;;;3.65;;
51594;SDS011;37677;53.254;6.594;2023-08-12T13:07:51;11.25;;;3.95;;
51594;SDS011;37677;53.254;6.594;2023-08-12T13:10:26;10.15;;;4.03;;
51594;SDS011;37677;53.254;6.594;2023-08-12T13:12:59;9.05;;;3.30;;
51594;SDS011;37677;53.254;6.594;2023-08-12T13:15:45;11.32;;;3.60;;
51594;SDS011;37677;53.254;6.594;2023-08-12T13:18:19;9.27;;;3.08;;
51594;SDS011;37677;53.254;6.594;2023-08-12T13:21:03;6.65;;;3.28;;
51594;SDS011;37677;53.254;6.594;2023-08-12T13:23:41;12.02;;;4.10;;
51594;SDS011;37677;53.254;6.594;2023-08-12T13:26:07;8.80;;;4.03;;
51594;SDS011;37677;53.254;6.594;2023-08-12T13:28:53;10.70;;;4.32;;
51594;SDS011;37677;53.254;6.594;2023-08-12T13:31:22;9.63;;;4.18;;
51594;SDS011;37677;53.254;6.594;2023-08-12T13:33:57;7.80;;;3.55;;
51594;SDS011;37677;53.254;6.594;2023-08-12T13:36:36;11.35;;;4.00;;
51594;SDS011;37677;53.254;6.594;2023-08-12T13:42:05;10.88;;;3.83;;
51594;SDS011;37677;53.254;6.594;2023-08-12T13:47:25;11.98;;;4.32;;
51594;SDS011;37677;53.254;6.594;2023-08-12T13:49:54;11.50;;;4.00;;
51594;SDS011;37677;53.254;6.594;2023-08-12T13:52:36;11.45;;;4.38;;
51594;SDS011;37677;53.254;6.594;2023-08-12T13:55:05;8.68;;;3.78;;
51594;SDS011;37677;53.254;6.594;2023-08-12T13:57:34;11.18;;;4.18;;
51594;SDS011;37677;53.254;6.594;2023-08-12T14:00:00;12.52;;;4.40;;
51594;SDS011;37677;53.254;6.594;2023-08-12T14:02:27;12.93;;;4.68;;
51594;SDS011;37677;53.254;6.594;2023-08-12T14:04:58;10.85;;;4.50;;
51594;SDS011;37677;53.254;6.594;2023-08-12T14:07:26;12.40;;;4.97;;
51594;SDS011;37677;53.254;6.594;2023-08-12T14:09:53;11.80;;;4.72;;
51594;SDS011;37677;53.254;6.594;2023-08-12T14:12:20;14.80;;;5.03;;
51594;SDS011;37677;53.254;6.594;2023-08-12T14:14:46;10.73;;;4.30;;
51594;SDS011;37677;53.254;6.594;2023-08-12T14:17:13;16.23;;;5.57;;
51594;SDS011;37677;53.254;6.594;2023-08-12T14:19:43;17.30;;;5.78;;
51594;SDS011;37677;53.254;6.594;2023-08-12T14:22:09;10.73;;;4.55;;
51594;SDS011;37677;53.254;6.594;2023-08-12T14:24:35;10.20;;;3.03;;
51594;SDS011;37677;53.254;6.594;2023-08-12T14:27:01;11.43;;;2.90;;
51594;SDS011;37677;53.254;6.594;2023-08-12T14:29:29;8.30;;;2.65;;
51594;SDS011;37677;53.254;6.594;2023-08-12T14:31:56;6.85;;;2.80;;
51594;SDS011;37677;53.254;6.594;2023-08-12T14:34:25;9.13;;;2.97;;
51594;SDS011;37677;53.254;6.594;2023-08-12T14:36:51;6.72;;;2.90;;
51594;SDS011;37677;53.254;6.594;2023-08-12T14:39:17;8.70;;;2.70;;
51594;SDS011;37677;53.254;6.594;2023-08-12T14:41:43;6.60;;;2.60;;
51594;SDS011;37677;53.254;6.594;2023-08-12T14:44:09;7.45;;;2.47;;
51594;SDS011;37677;53.254;6.594;2023-08-12T14:46:35;11.05;;;3.17;;
51594;SDS011;37677;53.254;6.594;2023-08-12T14:49:01;6.00;;;2.38;;
51594;SDS011;37677;53.254;6.594;2023-08-12T14:51:30;8.10;;;3.28;;
51594;SDS011;37677;53.254;6.594;2023-08-12T14:53:57;6.10;;;2.53;;
51594;SDS011;37677;53.254;6.594;2023-08-12T14:56:23;6.15;;;2.80;;
51594;SDS011;37677;53.254;6.594;2023-08-12T14:58:58;8.00;;;2.97;;
51594;SDS011;37677;53.254;6.594;2023-08-12T15:01:24;8.77;;;3.15;;
51594;SDS011;37677;53.254;6.594;2023-08-12T15:03:53;8.32;;;2.97;;
51594;SDS011;37677;53.254;6.594;2023-08-12T15:06:42;8.57;;;3.15;;
51594;SDS011;37677;53.254;6.594;2023-08-12T15:09:11;8.30;;;3.13;;
51594;SDS011;37677;53.254;6.594;2023-08-12T15:11:38;6.47;;;2.67;;
51594;SDS011;37677;53.254;6.594;2023-08-12T15:14:06;7.00;;;2.78;;
51594;SDS011;37677;53.254;6.594;2023-08-12T15:16:43;6.97;;;2.60;;
51594;SDS011;37677;53.254;6.594;2023-08-12T15:19:09;7.60;;;2.92;;
51594;SDS011;37677;53.254;6.594;2023-08-12T15:21:38;11.80;;;2.70;;
51594;SDS011;37677;53.254;6.594;2023-08-12T15:24:04;11.05;;;3.53;;